Bareilly — A8KG7 — position and weather

sailwx.info

Track history (hours):
 
Tides and Currents Weather Stations Pressure Air Temp Water Temp Dewpoint Dewpoint Depression Visibility Wind Speed Wind Dir Waves Ship Positions

Bareilly

Last reported at 2015-Feb-24 23:12 UTC. Time now 2015-Feb-27 15:19 UTC.
Position N 37°26' W 000°06'.

Length 243 m; draft 8 m.

Type: Tanker. MMSI: 636013054.

Date/timePositionNaut miles runAvg speedWind from/ knotsBaromVisibWave heightAir tempDewpointWater temp
2015-Feb-24 23:12N 37°26' W 000°06'913.5
2015-Feb-24 22:33N 37°26' W 000°17'1413.6
2015-Feb-24 21:33N 37°25' W 000°34'1313.2
2015-Feb-24 20:33N 37°28' W 000°50'11 2.1
2015-Feb-24 15:21N 37°33' W 001°03'0 0.1
2015-Feb-24 12:09N 37°33' W 001°02'0 0.0
2015-Feb-24 11:09N 37°33' W 001°02'0 0.0
2015-Feb-24 09:09N 37°33' W 001°02'0 0.0
2015-Feb-24 05:10N 37°33' W 001°03'0 0.1
2015-Feb-24 02:31N 37°33' W 001°02'3 3.5
2015-Feb-24 01:33N 37°34' W 000°58'0 0.0
2015-Feb-23 23:32N 37°34' W 000°58'0 0.0
2015-Feb-23 22:32N 37°34' W 000°58'0 0.0
2015-Feb-22 19:23N 37°34' W 000°58'2 2.5
2015-Feb-22 18:33N 37°33' W 001°01'1 0.3
2015-Feb-22 14:32N 37°33' W 001°02'0 0.0
2015-Feb-22 13:32N 37°33' W 001°02'0 0.0
2015-Feb-22 11:26N 37°33' W 001°02'0 0.0
2015-Feb-22 09:20N 37°33' W 001°02'0 0.0
2015-Feb-22 07:15N 37°33' W 001°02'0 0.1
2015-Feb-22 06:21N 37°33' W 001°02'0 0.0
2015-Feb-22 04:15N 37°33' W 001°02'0 0.1
2015-Feb-22 01:14N 37°33' W 001°03'0 0.0
2015-Feb-22 00:21N 37°33' W 001°03'0 0.0
2015-Feb-21 17:32N 37°33' W 001°02'0 0.3
2015-Feb-21 16:31N 37°33' W 001°03'4 3.8
2015-Feb-21 15:32N 37°30' W 000°59'9 9.2
2015-Feb-21 14:33N 37°28' W 000°48'1212.5
2015-Feb-21 13:33N 37°25' W 000°33'1212.0
2015-Feb-21 12:33N 37°26' W 000°18'1211.9
2015-Feb-21 11:33N 37°26' W 000°03'  
2015-Feb-19 04:16N 36°34' E 013°49'912.5
2015-Feb-19 03:34N 36°31' E 013°60'1211.9
2015-Feb-19 02:34N 36°28' E 014°14'1211.7
2015-Feb-19 01:33N 36°24' E 014°28'  
Track history (hours):
 
Tides and Currents Weather Stations Pressure Air Temp Water Temp Dewpoint Dewpoint Depression Visibility Wind Speed Wind Dir Waves Ship Positions

Bareilly

Last reported at 2015-Feb-24 23:12 UTC. Time now 2015-Feb-27 15:19 UTC.
Position N 37°26' W 000°06'.

Length 243 m; draft 8 m.

Type: Tanker. MMSI: 636013054.

Date/timePositionNaut miles runAvg speedWind from/ knotsBaromVisibWave heightAir tempDewpointWater temp
2015-Feb-24 23:12N 37°26' W 000°06'913.5
2015-Feb-24 22:33N 37°26' W 000°17'1413.6
2015-Feb-24 21:33N 37°25' W 000°34'1313.2
2015-Feb-24 20:33N 37°28' W 000°50'11 2.1
2015-Feb-24 15:21N 37°33' W 001°03'0 0.1
2015-Feb-24 12:09N 37°33' W 001°02'0 0.0
2015-Feb-24 11:09N 37°33' W 001°02'0 0.0
2015-Feb-24 09:09N 37°33' W 001°02'0 0.0
2015-Feb-24 05:10N 37°33' W 001°03'0 0.1
2015-Feb-24 02:31N 37°33' W 001°02'3 3.5
2015-Feb-24 01:33N 37°34' W 000°58'0 0.0
2015-Feb-23 23:32N 37°34' W 000°58'0 0.0
2015-Feb-23 22:32N 37°34' W 000°58'0 0.0
2015-Feb-22 19:23N 37°34' W 000°58'2 2.5
2015-Feb-22 18:33N 37°33' W 001°01'1 0.3
2015-Feb-22 14:32N 37°33' W 001°02'0 0.0
2015-Feb-22 13:32N 37°33' W 001°02'0 0.0
2015-Feb-22 11:26N 37°33' W 001°02'0 0.0
2015-Feb-22 09:20N 37°33' W 001°02'0 0.0
2015-Feb-22 07:15N 37°33' W 001°02'0 0.1
2015-Feb-22 06:21N 37°33' W 001°02'0 0.0
2015-Feb-22 04:15N 37°33' W 001°02'0 0.1
2015-Feb-22 01:14N 37°33' W 001°03'0 0.0
2015-Feb-22 00:21N 37°33' W 001°03'0 0.0
2015-Feb-21 17:32N 37°33' W 001°02'0 0.3
2015-Feb-21 16:31N 37°33' W 001°03'4 3.8
2015-Feb-21 15:32N 37°30' W 000°59'9 9.2
2015-Feb-21 14:33N 37°28' W 000°48'1212.5
2015-Feb-21 13:33N 37°25' W 000°33'1212.0
2015-Feb-21 12:33N 37°26' W 000°18'1211.9
2015-Feb-21 11:33N 37°26' W 000°03'  
2015-Feb-19 04:16N 36°34' E 013°49'912.5
2015-Feb-19 03:34N 36°31' E 013°60'1211.9
2015-Feb-19 02:34N 36°28' E 014°14'1211.7
2015-Feb-19 01:33N 36°24' E 014°28'  

Dump ship's entire track history